createdAt,value
2023-03-11T00:00:30.131Z,5.47
2023-03-11T00:03:00.464Z,5.65
2023-03-11T00:05:30.753Z,5.40
2023-03-11T00:07:58.074Z,5.17
2023-03-11T00:10:40.227Z,5.06
2023-03-11T00:13:08.584Z,5.32
2023-03-11T00:15:35.959Z,5.39
2023-03-11T00:18:02.883Z,5.29
2023-03-11T00:20:38.023Z,5.20
2023-03-11T00:23:06.139Z,4.97
2023-03-11T00:25:33.975Z,4.94
2023-03-11T00:28:00.922Z,4.90
2023-03-11T00:30:28.246Z,4.82
2023-03-11T00:32:57.545Z,4.95
2023-03-11T00:35:29.532Z,4.91
2023-03-11T00:37:58.579Z,4.96
2023-03-11T00:40:26.722Z,5.00
2023-03-11T00:42:53.640Z,5.06
2023-03-11T00:45:20.784Z,5.03
2023-03-11T00:47:47.597Z,5.00
2023-03-11T00:50:18.268Z,4.97
2023-03-11T00:52:49.103Z,4.96
2023-03-11T00:55:18.545Z,4.92
2023-03-11T00:57:45.388Z,4.91
2023-03-11T01:00:17.520Z,4.88
2023-03-11T01:02:44.467Z,5.04
2023-03-11T01:05:12.056Z,5.16
2023-03-11T01:07:38.828Z,5.02
2023-03-11T01:10:07.732Z,5.03
2023-03-11T01:12:34.582Z,5.12
2023-03-11T01:15:01.373Z,4.99
2023-03-11T01:17:28.124Z,4.97
2023-03-11T01:19:54.881Z,5.03
2023-03-11T01:22:21.635Z,4.96
2023-03-11T01:24:48.466Z,4.93
2023-03-11T01:27:15.157Z,5.03
2023-03-11T01:29:41.920Z,4.80
2023-03-11T01:32:08.722Z,4.83
2023-03-11T01:34:36.263Z,4.65
2023-03-11T01:37:03.932Z,4.53
2023-03-11T01:39:30.736Z,4.46
2023-03-11T01:41:57.521Z,4.61
2023-03-11T01:44:24.311Z,4.53
2023-03-11T01:46:54.280Z,4.54
2023-03-11T01:49:22.502Z,4.35
2023-03-11T01:52:08.829Z,4.45
2023-03-11T01:54:38.800Z,4.49
2023-03-11T01:57:07.319Z,4.46
2023-03-11T01:59:38.901Z,4.49
2023-03-11T02:02:11.822Z,4.60
2023-03-11T02:04:40.752Z,4.45
2023-03-11T02:07:08.302Z,4.55
2023-03-11T02:09:35.171Z,4.55
2023-03-11T02:12:03.333Z,4.35
2023-03-11T02:14:30.994Z,4.55
2023-03-11T02:16:58.301Z,4.59
2023-03-11T02:19:36.034Z,4.40
2023-03-11T02:22:02.824Z,4.40
2023-03-11T02:24:47.981Z,4.31
2023-03-11T02:27:16.978Z,4.25
2023-03-11T02:29:45.867Z,4.19
2023-03-11T02:32:12.695Z,4.23
2023-03-11T02:34:39.983Z,4.11
2023-03-11T02:37:10.166Z,4.18
2023-03-11T02:39:39.488Z,4.18
2023-03-11T02:42:11.211Z,4.14
2023-03-11T02:44:38.423Z,4.17
2023-03-11T02:47:05.526Z,3.96
2023-03-11T02:49:32.954Z,3.97
2023-03-11T02:51:59.632Z,4.06
2023-03-11T02:54:26.447Z,4.06
2023-03-11T02:56:53.104Z,3.93
2023-03-11T02:59:19.841Z,3.96
2023-03-11T03:01:46.539Z,4.03
2023-03-11T03:04:13.370Z,3.90
2023-03-11T03:06:40.095Z,3.78
2023-03-11T03:09:06.899Z,3.72
2023-03-11T03:11:33.604Z,3.81
2023-03-11T03:14:00.286Z,3.77
2023-03-11T03:16:27.054Z,3.77
2023-03-11T03:18:53.803Z,3.87
2023-03-11T03:21:20.585Z,3.81
2023-03-11T03:23:47.302Z,3.71
2023-03-11T03:26:14.935Z,3.68
2023-03-11T03:28:41.742Z,3.64
2023-03-11T03:31:10.067Z,3.60
2023-03-11T03:33:37.056Z,3.62
2023-03-11T03:36:12.377Z,3.56
2023-03-11T03:38:39.257Z,3.63
2023-03-11T03:41:06.285Z,3.52
2023-03-11T03:43:33.150Z,3.41
2023-03-11T03:46:05.404Z,3.46
2023-03-11T03:48:32.365Z,3.51
2023-03-11T03:51:07.977Z,3.54
2023-03-11T03:53:35.781Z,3.51
2023-03-11T03:56:07.735Z,3.61
2023-03-11T03:58:34.543Z,3.34
2023-03-11T04:01:01.603Z,3.39
2023-03-11T04:03:28.870Z,3.24
2023-03-11T04:06:06.267Z,3.35
2023-03-11T04:08:33.014Z,3.40
2023-03-11T04:10:59.721Z,3.31
2023-03-11T04:13:26.434Z,3.34
2023-03-11T04:15:53.157Z,3.31
2023-03-11T04:18:19.896Z,3.36
2023-03-11T04:20:46.665Z,3.37
2023-03-11T04:23:13.453Z,3.17
2023-03-11T04:25:40.160Z,3.06
2023-03-11T04:28:07.229Z,3.12
2023-03-11T04:30:34.067Z,3.11
2023-03-11T04:33:00.935Z,3.06
2023-03-11T04:35:27.680Z,3.01
2023-03-11T04:37:54.511Z,3.02
2023-03-11T04:40:21.391Z,3.01
2023-03-11T04:42:48.306Z,3.01
2023-03-11T04:45:15.271Z,2.87
2023-03-11T04:47:42.011Z,2.84
2023-03-11T04:50:09.207Z,2.92
2023-03-11T04:52:35.934Z,2.98
2023-03-11T04:55:02.642Z,2.95
2023-03-11T04:57:29.363Z,2.74
2023-03-11T04:59:56.132Z,2.83
2023-03-11T05:02:22.869Z,2.94
2023-03-11T05:04:49.669Z,2.89
2023-03-11T05:07:16.783Z,2.65
2023-03-11T05:09:44.011Z,2.50
2023-03-11T05:12:13.744Z,2.70
2023-03-11T05:14:40.877Z,2.63
2023-03-11T05:17:08.191Z,2.63
2023-03-11T05:19:35.332Z,2.67
2023-03-11T05:22:05.508Z,2.66
2023-03-11T05:24:32.129Z,2.60
2023-03-11T05:26:58.974Z,2.65
2023-03-11T05:29:25.884Z,2.40
2023-03-11T05:31:52.586Z,2.61
2023-03-11T05:34:19.285Z,2.66
2023-03-11T05:36:46.142Z,2.67
2023-03-11T05:39:12.830Z,2.67
2023-03-11T05:41:39.448Z,2.59
2023-03-11T05:44:06.232Z,2.34
2023-03-11T05:46:33.008Z,2.51
2023-03-11T05:49:00.438Z,2.65
2023-03-11T05:51:27.080Z,2.49
2023-03-11T05:53:53.627Z,2.56
2023-03-11T05:56:22.364Z,2.52
2023-03-11T05:58:49.657Z,2.45
2023-03-11T06:01:18.855Z,2.69
2023-03-11T06:03:45.573Z,2.60
2023-03-11T06:06:13.372Z,2.42
2023-03-11T06:08:41.414Z,2.54
2023-03-11T06:11:10.263Z,2.61
2023-03-11T06:13:37.711Z,2.39
2023-03-11T06:16:05.105Z,2.46
2023-03-11T06:18:31.803Z,2.51
2023-03-11T06:20:59.757Z,2.38
2023-03-11T06:23:27.080Z,2.32
2023-03-11T06:25:57.662Z,2.49
2023-03-11T06:28:24.555Z,2.63
2023-03-11T06:30:51.208Z,2.73
2023-03-11T06:33:17.823Z,2.52
2023-03-11T06:35:44.527Z,2.69
2023-03-11T06:38:11.322Z,2.59
2023-03-11T06:40:38.908Z,2.78
2023-03-11T06:43:05.479Z,2.81
2023-03-11T06:45:32.144Z,2.87
2023-03-11T06:47:58.839Z,2.97
2023-03-11T06:50:26.169Z,2.78
2023-03-11T06:52:52.854Z,2.84
2023-03-11T06:55:21.305Z,2.85
2023-03-11T06:57:48.154Z,2.95
2023-03-11T07:00:15.481Z,2.90
2023-03-11T07:02:42.453Z,3.01
2023-03-11T07:05:09.716Z,2.98
2023-03-11T07:07:36.456Z,3.12
2023-03-11T07:10:03.220Z,3.22
2023-03-11T07:12:29.991Z,3.35
2023-03-11T07:14:57.735Z,3.36
2023-03-11T07:17:24.816Z,3.23
2023-03-11T07:19:52.133Z,3.26
2023-03-11T07:22:19.393Z,3.34
2023-03-11T07:24:47.590Z,3.57
2023-03-11T07:27:14.364Z,3.72
2023-03-11T07:29:41.058Z,3.57
2023-03-11T07:32:08.518Z,3.42
2023-03-11T07:34:35.713Z,3.75
2023-03-11T07:37:02.430Z,3.62
2023-03-11T07:39:29.211Z,3.66
2023-03-11T07:41:55.940Z,3.77
2023-03-11T07:44:22.677Z,3.74
2023-03-11T07:46:49.350Z,3.79
2023-03-11T07:49:16.555Z,3.56
2023-03-11T07:51:44.068Z,3.57
2023-03-11T07:54:12.047Z,3.64
2023-03-11T07:56:39.073Z,3.93
2023-03-11T07:59:05.998Z,3.76
2023-03-11T08:01:36.902Z,3.82
2023-03-11T08:04:06.434Z,4.06
2023-03-11T08:06:34.451Z,4.19
2023-03-11T08:09:03.947Z,4.44
2023-03-11T08:11:31.181Z,3.79
2023-03-11T08:14:00.933Z,3.96
2023-03-11T08:16:28.049Z,4.28
2023-03-11T08:18:54.837Z,4.48
2023-03-11T08:21:25.841Z,4.69
2023-03-11T08:23:52.996Z,4.64
2023-03-11T08:26:22.023Z,4.69
2023-03-11T08:28:49.240Z,4.60
2023-03-11T08:31:20.751Z,4.93
2023-03-11T08:33:52.019Z,4.62
2023-03-11T08:36:19.620Z,4.45
2023-03-11T08:38:46.661Z,4.34
2023-03-11T08:41:13.824Z,4.92
2023-03-11T08:43:40.673Z,4.89
2023-03-11T08:46:07.534Z,4.87
2023-03-11T08:48:35.321Z,5.02
2023-03-11T08:51:03.108Z,4.52
2023-03-11T08:53:30.294Z,4.16
2023-03-11T08:55:56.881Z,4.11
2023-03-11T08:58:25.294Z,4.32
2023-03-11T09:00:52.697Z,5.01
2023-03-11T09:03:19.855Z,5.10
2023-03-11T09:05:46.589Z,5.05
2023-03-11T09:08:13.428Z,5.48
2023-03-11T09:10:40.147Z,6.00
2023-03-11T09:13:06.960Z,5.37
2023-03-11T09:15:34.947Z,5.17
2023-03-11T09:18:01.618Z,5.01
2023-03-11T09:20:28.341Z,4.99
2023-03-11T09:22:55.083Z,5.75
2023-03-11T09:25:21.971Z,5.95
2023-03-11T09:27:48.628Z,5.50
2023-03-11T09:30:15.405Z,5.29
2023-03-11T09:32:42.205Z,5.69
2023-03-11T09:35:09.886Z,5.93
2023-03-11T09:37:36.671Z,5.28
2023-03-11T09:40:03.961Z,5.70
2023-03-11T09:42:30.606Z,6.17
2023-03-11T09:45:17.606Z,5.71
2023-03-11T09:47:47.306Z,5.59
2023-03-11T09:50:35.580Z,6.06
2023-03-11T09:53:36.190Z,5.81
2023-03-11T09:56:06.311Z,5.79
2023-03-11T09:58:45.468Z,5.68
2023-03-11T10:01:36.538Z,6.54
2023-03-11T10:04:12.508Z,6.40
2023-03-11T10:06:40.357Z,6.10
2023-03-11T10:09:13.170Z,5.84
2023-03-11T10:11:56.467Z,5.35
2023-03-11T10:14:42.900Z,6.03
2023-03-11T10:17:39.854Z,6.09
2023-03-11T10:20:20.007Z,5.98
2023-03-11T10:23:13.071Z,6.24
2023-03-11T10:25:57.544Z,6.42
2023-03-11T10:28:57.653Z,5.62
2023-03-11T10:31:31.163Z,5.31
2023-03-11T10:34:21.952Z,5.53
2023-03-11T10:37:04.024Z,5.68
2023-03-11T10:39:34.335Z,6.12
2023-03-11T10:42:03.482Z,5.98
2023-03-11T10:44:34.986Z,6.09
2023-03-11T10:47:02.478Z,6.39
2023-03-11T10:49:29.799Z,6.49
2023-03-11T10:51:57.715Z,6.24
2023-03-11T10:54:46.210Z,6.25
2023-03-11T10:57:23.744Z,6.49
2023-03-11T10:59:52.672Z,6.52
2023-03-11T11:02:26.166Z,6.16
2023-03-11T11:05:28.229Z,6.65
2023-03-11T11:08:16.102Z,6.07
2023-03-11T11:10:56.820Z,6.90
2023-03-11T11:13:30.347Z,6.21
2023-03-11T11:15:58.870Z,6.49
2023-03-11T11:18:27.963Z,7.12
2023-03-11T11:20:56.501Z,7.06
2023-03-11T11:23:38.192Z,6.13
2023-03-11T11:26:07.884Z,6.14
2023-03-11T11:28:36.032Z,5.98
2023-03-11T11:31:05.286Z,6.48
2023-03-11T11:33:34.226Z,6.44
2023-03-11T11:36:03.616Z,6.84
2023-03-11T11:38:32.090Z,6.25
2023-03-11T11:41:01.793Z,6.47
2023-03-11T11:43:49.956Z,6.39
2023-03-11T11:46:31.582Z,6.65
2023-03-11T11:49:21.395Z,6.12
2023-03-11T11:51:52.557Z,6.37
2023-03-11T11:54:25.379Z,6.29
2023-03-11T11:56:52.088Z,6.79
2023-03-11T11:59:21.748Z,6.18
2023-03-11T12:01:48.445Z,6.18
2023-03-11T12:04:29.889Z,6.33
2023-03-11T12:07:17.587Z,6.78
2023-03-11T12:09:56.955Z,6.69
2023-03-11T12:12:28.424Z,6.75
2023-03-11T12:15:21.049Z,6.66
2023-03-11T12:17:50.508Z,7.20
2023-03-11T12:20:28.399Z,7.13
2023-03-11T12:23:01.858Z,6.67
2023-03-11T12:25:34.410Z,6.57
2023-03-11T12:28:06.488Z,6.58
2023-03-11T12:30:37.238Z,6.33
2023-03-11T12:33:06.564Z,6.16
2023-03-11T12:35:35.002Z,6.38
2023-03-11T12:38:01.699Z,6.10
2023-03-11T12:41:05.343Z,5.77
2023-03-11T12:43:33.848Z,6.33
2023-03-11T12:46:04.833Z,6.41
2023-03-11T12:48:46.111Z,6.38
2023-03-11T12:51:33.710Z,5.94
2023-03-11T12:54:20.320Z,6.49
2023-03-11T12:56:54.557Z,6.58
2023-03-11T12:59:58.121Z,6.56
2023-03-11T13:02:55.916Z,6.18
2023-03-11T13:05:45.097Z,6.58
2023-03-11T13:08:23.204Z,6.25
2023-03-11T13:10:52.276Z,6.22
2023-03-11T13:13:31.304Z,6.46
2023-03-11T13:15:58.770Z,6.17
2023-03-11T13:18:27.066Z,6.10
2023-03-11T13:21:04.605Z,6.30
2023-03-11T13:23:40.643Z,5.87
2023-03-11T13:26:13.309Z,6.48
2023-03-11T13:29:08.060Z,6.33
2023-03-11T13:31:55.905Z,6.89
2023-03-11T13:34:25.534Z,6.22
2023-03-11T13:37:10.181Z,5.98
2023-03-11T13:40:00.645Z,5.99
2023-03-11T13:42:32.574Z,6.13
2023-03-11T13:45:00.084Z,5.89
2023-03-11T13:47:27.591Z,6.29
2023-03-11T13:50:01.289Z,6.34
2023-03-11T13:52:37.279Z,5.88
2023-03-11T13:55:23.956Z,6.06
2023-03-11T13:57:56.255Z,6.02
2023-03-11T14:00:25.291Z,6.15
2023-03-11T14:02:57.736Z,6.09
2023-03-11T14:05:31.181Z,5.84
2023-03-11T14:08:35.199Z,5.46
2023-03-11T14:11:15.415Z,5.98
2023-03-11T14:13:50.291Z,6.15
2023-03-11T14:16:20.330Z,6.10
2023-03-11T14:18:49.624Z,6.35
2023-03-11T14:21:19.038Z,6.19
2023-03-11T14:23:48.415Z,6.47
2023-03-11T14:26:19.226Z,6.04
2023-03-11T14:29:00.930Z,5.93
2023-03-11T14:31:33.091Z,5.66
2023-03-11T14:34:06.775Z,5.84
2023-03-11T14:36:44.316Z,5.72
2023-03-11T14:39:24.156Z,5.87
2023-03-11T14:41:52.390Z,6.17
2023-03-11T14:44:19.543Z,5.86
2023-03-11T14:46:47.049Z,5.74
2023-03-11T14:49:16.591Z,5.41
2023-03-11T14:51:43.372Z,5.75
2023-03-11T14:54:17.729Z,5.46
2023-03-11T14:56:49.784Z,5.36
2023-03-11T14:59:27.231Z,5.55
2023-03-11T15:01:56.330Z,5.71
2023-03-11T15:04:32.864Z,5.57
2023-03-11T15:07:00.400Z,5.39
2023-03-11T15:09:28.410Z,5.37
2023-03-11T15:11:58.292Z,5.19
2023-03-11T15:14:29.197Z,5.37
2023-03-11T15:16:56.765Z,5.40
2023-03-11T15:19:29.744Z,5.10
2023-03-11T15:22:01.138Z,5.13
2023-03-11T15:24:29.932Z,4.71
2023-03-11T15:27:07.527Z,5.01
2023-03-11T15:29:35.212Z,4.93
2023-03-11T15:32:41.269Z,4.83
2023-03-11T15:35:07.966Z,4.68
2023-03-11T15:37:34.925Z,4.61
2023-03-11T15:40:35.316Z,4.53
2023-03-11T15:43:15.111Z,4.50
2023-03-11T15:45:42.781Z,4.49
2023-03-11T15:48:13.586Z,4.44
2023-03-11T15:50:53.689Z,4.54
2023-03-11T15:53:22.006Z,4.61
2023-03-11T15:55:48.843Z,4.50
2023-03-11T15:58:17.569Z,4.53
2023-03-11T16:00:52.731Z,4.67
2023-03-11T16:03:20.030Z,4.67
2023-03-11T16:05:47.370Z,4.60
2023-03-11T16:08:14.177Z,4.64
2023-03-11T16:10:41.147Z,4.58
2023-03-11T16:13:13.124Z,4.60
2023-03-11T16:15:39.916Z,4.42
2023-03-11T16:18:08.920Z,4.37
2023-03-11T16:20:44.672Z,4.46
2023-03-11T16:23:18.080Z,4.42
2023-03-11T16:25:45.171Z,4.45
2023-03-11T16:28:14.019Z,4.55
2023-03-11T16:30:40.709Z,4.36
2023-03-11T16:33:07.507Z,4.20
2023-03-11T16:35:34.742Z,4.25
2023-03-11T16:38:01.854Z,4.19
2023-03-11T16:40:29.272Z,4.16
2023-03-11T16:42:58.992Z,4.09
2023-03-11T16:45:25.911Z,4.02
2023-03-11T16:47:52.629Z,4.00
2023-03-11T16:50:20.982Z,4.14
2023-03-11T16:52:47.880Z,4.25
2023-03-11T16:55:14.664Z,4.18
2023-03-11T16:57:41.394Z,4.16
2023-03-11T17:00:09.920Z,4.23
2023-03-11T17:02:37.791Z,4.13
2023-03-11T17:05:05.919Z,4.06
2023-03-11T17:07:33.187Z,3.93
2023-03-11T17:10:00.327Z,3.70
2023-03-11T17:12:28.114Z,3.78
2023-03-11T17:14:55.455Z,3.72
2023-03-11T17:17:22.475Z,3.65
2023-03-11T17:19:49.334Z,3.80
2023-03-11T17:22:16.555Z,3.71
2023-03-11T17:24:43.364Z,3.77
2023-03-11T17:27:10.167Z,3.74
2023-03-11T17:29:36.918Z,3.71
2023-03-11T17:32:06.133Z,3.58
2023-03-11T17:34:32.886Z,3.43
2023-03-11T17:36:59.596Z,3.39
2023-03-11T17:39:26.395Z,3.27
2023-03-11T17:41:53.105Z,3.55
2023-03-11T17:44:19.891Z,3.40
2023-03-11T17:46:46.638Z,3.38
2023-03-11T17:49:14.709Z,3.10
2023-03-11T17:51:41.679Z,3.12
2023-03-11T17:54:08.447Z,3.07
2023-03-11T17:56:35.372Z,2.91
2023-03-11T17:59:02.102Z,2.87
2023-03-11T18:01:29.543Z,2.70
2023-03-11T18:03:56.275Z,2.78
2023-03-11T18:06:23.564Z,2.90
2023-03-11T18:08:50.613Z,2.80
2023-03-11T18:11:20.919Z,2.77
2023-03-11T18:13:47.728Z,2.77
2023-03-11T18:16:17.700Z,2.78
2023-03-11T18:18:44.836Z,2.78
2023-03-11T18:21:20.817Z,2.68
2023-03-11T18:23:48.449Z,2.77
2023-03-11T18:26:17.655Z,2.69
2023-03-11T18:28:44.577Z,2.66
2023-03-11T18:31:12.849Z,2.62
2023-03-11T18:33:40.786Z,2.69
2023-03-11T18:36:16.352Z,2.66
2023-03-11T18:38:43.820Z,2.55
2023-03-11T18:41:10.717Z,2.51
2023-03-11T18:43:38.354Z,2.37
2023-03-11T18:46:13.781Z,2.33
2023-03-11T18:48:41.082Z,2.28
2023-03-11T18:51:09.077Z,2.13
2023-03-11T18:53:36.308Z,2.20
2023-03-11T18:56:08.735Z,2.31
2023-03-11T18:58:35.442Z,2.27
2023-03-11T19:01:10.584Z,2.23
2023-03-11T19:03:38.358Z,2.24
2023-03-11T19:06:05.628Z,2.21
2023-03-11T19:08:32.329Z,2.25
2023-03-11T19:10:59.173Z,2.17
2023-03-11T19:13:37.161Z,2.14
2023-03-11T19:16:11.956Z,2.14
2023-03-11T19:18:41.295Z,2.12
2023-03-11T19:21:09.008Z,2.07
2023-03-11T19:23:35.829Z,1.92
2023-03-11T19:26:03.533Z,1.94
2023-03-11T19:28:30.502Z,1.89
2023-03-11T19:30:58.866Z,1.90
2023-03-11T19:33:26.570Z,1.95
2023-03-11T19:35:55.111Z,1.93
2023-03-11T19:38:22.787Z,1.86
2023-03-11T19:40:54.391Z,2.00
2023-03-11T19:43:21.836Z,1.96
2023-03-11T19:45:50.371Z,1.97
2023-03-11T19:48:17.479Z,1.77
2023-03-11T19:50:44.423Z,1.78
2023-03-11T19:53:11.279Z,1.71
2023-03-11T19:55:37.966Z,1.73
2023-03-11T19:58:04.574Z,1.90
2023-03-11T20:00:31.504Z,1.71
2023-03-11T20:02:58.150Z,1.71
2023-03-11T20:05:25.068Z,1.66
2023-03-11T20:07:51.754Z,1.61
2023-03-11T20:10:18.566Z,1.62
2023-03-11T20:13:01.479Z,1.44
2023-03-11T20:15:31.666Z,1.36
2023-03-11T20:18:00.887Z,1.30
2023-03-11T20:20:32.652Z,1.47
2023-03-11T20:23:05.064Z,1.59
2023-03-11T20:25:35.616Z,1.61
2023-03-11T20:28:03.334Z,1.61
2023-03-11T20:30:32.989Z,1.39
2023-03-11T20:33:00.549Z,1.32
2023-03-11T20:35:27.905Z,1.19
2023-03-11T20:37:55.137Z,1.13
2023-03-11T20:40:22.160Z,1.12
2023-03-11T20:42:50.666Z,1.06
2023-03-11T20:45:22.523Z,0.87
2023-03-11T20:47:54.215Z,0.98
2023-03-11T20:50:22.302Z,0.82
2023-03-11T20:52:51.256Z,0.66
2023-03-11T20:55:19.516Z,0.87
2023-03-11T20:57:47.037Z,0.84
2023-03-11T21:00:15.332Z,0.84
2023-03-11T21:02:43.254Z,0.97
2023-03-11T21:05:11.945Z,0.93
2023-03-11T21:07:39.690Z,0.86
2023-03-11T21:10:09.941Z,0.87
2023-03-11T21:12:37.010Z,0.83
2023-03-11T21:15:05.058Z,0.76
2023-03-11T21:17:32.981Z,0.75
2023-03-11T21:19:59.982Z,0.65
2023-03-11T21:22:27.444Z,0.75
2023-03-11T21:24:55.782Z,0.64
2023-03-11T21:27:26.615Z,0.58
2023-03-11T21:29:54.687Z,0.55
2023-03-11T21:32:22.654Z,0.65
2023-03-11T21:34:50.752Z,0.89
2023-03-11T21:37:17.824Z,0.94
2023-03-11T21:39:45.388Z,0.92
2023-03-11T21:42:12.741Z,0.89
2023-03-11T21:44:39.546Z,0.90
2023-03-11T21:47:07.092Z,0.88
2023-03-11T21:49:34.025Z,1.01
2023-03-11T21:52:02.311Z,0.85
2023-03-11T21:54:29.554Z,0.90
2023-03-11T21:56:56.917Z,0.88
2023-03-11T21:59:25.643Z,0.92
2023-03-11T22:01:53.461Z,0.97
2023-03-11T22:04:20.384Z,0.91
2023-03-11T22:06:47.491Z,0.81
2023-03-11T22:09:14.674Z,0.96
2023-03-11T22:11:41.566Z,0.92
2023-03-11T22:14:08.267Z,0.78
2023-03-11T22:16:35.349Z,0.83
2023-03-11T22:19:04.323Z,0.82
2023-03-11T22:21:31.295Z,0.85
2023-03-11T22:23:58.107Z,0.78
2023-03-11T22:26:24.855Z,0.77
2023-03-11T22:28:51.773Z,0.82
2023-03-11T22:31:19.098Z,0.82
2023-03-11T22:33:46.214Z,0.79
2023-03-11T22:36:13.053Z,0.84
2023-03-11T22:38:42.004Z,0.82
2023-03-11T22:41:09.074Z,0.79
2023-03-11T22:43:36.662Z,0.80
2023-03-11T22:46:04.761Z,0.88
2023-03-11T22:48:32.532Z,0.90
2023-03-11T22:50:59.131Z,0.87
2023-03-11T22:53:26.000Z,0.86
2023-03-11T22:55:52.774Z,0.87
2023-03-11T22:58:19.890Z,0.83
2023-03-11T23:00:46.766Z,0.73
2023-03-11T23:03:14.030Z,0.85
2023-03-11T23:05:45.985Z,0.91
2023-03-11T23:08:16.591Z,0.68
2023-03-11T23:10:44.895Z,0.76
2023-03-11T23:13:12.127Z,0.78
2023-03-11T23:15:42.864Z,0.69
2023-03-11T23:18:09.875Z,0.69
2023-03-11T23:20:37.757Z,0.72
2023-03-11T23:23:04.753Z,0.61
2023-03-11T23:25:32.143Z,0.64
2023-03-11T23:27:58.906Z,0.60
2023-03-11T23:30:25.530Z,0.60
2023-03-11T23:32:52.139Z,0.60
2023-03-11T23:35:18.958Z,0.55
2023-03-11T23:37:50.617Z,0.57
2023-03-11T23:40:18.262Z,0.47
2023-03-11T23:42:45.002Z,0.27
2023-03-11T23:45:11.762Z,0.12
2023-03-11T23:47:38.446Z,0.08
2023-03-11T23:50:06.038Z,0.04
2023-03-11T23:52:33.110Z,-0.16
2023-03-11T23:54:59.764Z,-0.17
2023-03-11T23:57:26.656Z,-0.12
2023-03-11T23:59:53.220Z,0.04
